Time;durP1;ratioP1;P1;durP2;ratioP2;P2;SDS_P1;SDS_P2;PMS_P1;PMS_P2;Temp;Humidity;BMP_temperature;BMP_pressure;BME280_temperature;BME280_humidity;BME280_pressure;Samples;Min_cycle;Max_cycle;Signal;HPM_P1;HPM_P2
2023/10/12 00:02:21;;;;;;;8.70;5.50;;;;;;;-128.00;-1.00;-1.00;105922;1250;1003382;-71
2023/10/12 00:05:00;;;;;;;9.60;5.50;;;;;;;-128.00;-1.00;-1.00;105897;1250;1046329;-77
2023/10/12 00:07:38;;;;;;;10.20;5.00;;;;;;;-128.00;-1.00;-1.00;105763;1249;1046370;-70
2023/10/12 00:12:44;;;;;;;10.40;5.80;;;;;;;-128.00;-1.00;-1.00;105947;1249;1056398;-70
2023/10/12 00:17:48;;;;;;;9.70;5.00;;;;;;;-128.00;-1.00;-1.00;105925;1249;1048072;-70
2023/10/12 00:20:25;;;;;;;8.60;5.20;;;;;;;-128.00;-1.00;-1.00;105759;1249;1004365;-69
2023/10/12 00:22:51;;;;;;;13.00;5.60;;;;;;;-128.00;-1.00;-1.00;105936;1250;1062591;-70
2023/10/12 00:25:18;;;;;;;11.90;5.30;;;;;;;-128.00;-1.00;-1.00;105959;1249;1004227;-70
2023/10/12 00:27:47;;;;;;;9.10;5.70;;;;;;;-128.00;-1.00;-1.00;105967;1250;1003930;-71
2023/10/12 00:30:14;;;;;;;12.70;5.80;;;;;;;-128.00;-1.00;-1.00;105974;1249;1046173;-71
2023/10/12 00:32:41;;;;;;;7.30;4.90;;;;;;;-128.00;-1.00;-1.00;105934;1249;1003891;-71
2023/10/12 00:35:11;;;;;;;10.30;5.40;;;;;;;-128.00;-1.00;-1.00;105944;1249;1004861;-71
2023/10/12 00:37:40;;;;;;;10.40;7.10;;;;;;;-128.00;-1.00;-1.00;105748;1250;1056144;-71
2023/10/12 00:43:14;;;;;;;9.40;5.70;;;;;;;-128.00;-1.00;-1.00;105522;1251;1046377;-70
2023/10/12 00:45:41;;;;;;;10.50;6.10;;;;;;;-128.00;-1.00;-1.00;105897;1249;1047998;-71
2023/10/12 00:48:07;;;;;;;9.20;5.00;;;;;;;-128.00;-1.00;-1.00;105899;1249;1004453;-70
2023/10/12 00:50:36;;;;;;;11.00;6.00;;;;;;;-128.00;-1.00;-1.00;105947;1250;1004738;-70
2023/10/12 00:55:46;;;;;;;14.20;5.90;;;;;;;-128.00;-1.00;-1.00;105960;1249;1046367;-71
2023/10/12 00:58:14;;;;;;;7.20;5.10;;;;;;;-128.00;-1.00;-1.00;105950;1249;1003364;-70
2023/10/12 01:00:53;;;;;;;7.00;5.70;;;;;;;-128.00;-1.00;-1.00;105716;1250;1062229;-70
2023/10/12 01:03:35;;;;;;;11.40;6.80;;;;;;;-128.00;-1.00;-1.00;105789;1250;1054695;-69
2023/10/12 01:08:33;;;;;;;9.60;6.00;;;;;;;-128.00;-1.00;-1.00;105930;1249;1047471;-69
2023/10/12 01:11:05;;;;;;;13.80;6.40;;;;;;;-128.00;-1.00;-1.00;105793;1249;1005092;-70
2023/10/12 01:13:33;;;;;;;14.80;6.00;;;;;;;-128.00;-1.00;-1.00;105908;1249;1062375;-71
2023/10/12 01:16:21;;;;;;;10.40;5.90;;;;;;;-128.00;-1.00;-1.00;105896;1250;1004729;-71
2023/10/12 01:18:55;;;;;;;11.90;6.50;;;;;;;-128.00;-1.00;-1.00;105904;1249;1059636;-71
2023/10/12 01:21:21;;;;;;;13.40;7.10;;;;;;;-128.00;-1.00;-1.00;105914;1249;1046684;-70
2023/10/12 01:23:50;;;;;;;10.50;6.70;;;;;;;-128.00;-1.00;-1.00;105964;1249;1004135;-71
2023/10/12 01:26:19;;;;;;;12.70;6.50;;;;;;;-128.00;-1.00;-1.00;105963;1250;1064460;-70
2023/10/12 01:28:49;;;;;;;11.40;6.20;;;;;;;-128.00;-1.00;-1.00;105996;1249;1055230;-70
2023/10/12 01:31:26;;;;;;;10.30;6.50;;;;;;;-128.00;-1.00;-1.00;105776;1249;1058835;-70
2023/10/12 01:33:55;;;;;;;11.60;6.50;;;;;;;-128.00;-1.00;-1.00;105918;1249;1047060;-71
2023/10/12 01:36:22;;;;;;;10.00;5.90;;;;;;;-128.00;-1.00;-1.00;105859;1249;1004776;-71
2023/10/12 01:38:51;;;;;;;9.20;5.90;;;;;;;-128.00;-1.00;-1.00;105960;1249;1003906;-71
2023/10/12 01:41:25;;;;;;;15.00;6.40;;;;;;;-128.00;-1.00;-1.00;105896;1250;1004981;-71
2023/10/12 01:43:52;;;;;;;11.90;6.20;;;;;;;-128.00;-1.00;-1.00;105932;1249;1059501;-72
2023/10/12 01:46:22;;;;;;;9.80;6.30;;;;;;;-128.00;-1.00;-1.00;105918;1249;1003592;-71
2023/10/12 01:48:52;;;;;;;9.10;6.00;;;;;;;-128.00;-1.00;-1.00;105923;1249;1046777;-71
2023/10/12 01:51:24;;;;;;;12.50;6.50;;;;;;;-128.00;-1.00;-1.00;105880;1249;1062496;-71
2023/10/12 01:53:55;;;;;;;10.40;6.60;;;;;;;-128.00;-1.00;-1.00;105983;1249;1054725;-71
2023/10/12 01:56:27;;;;;;;9.30;6.30;;;;;;;-128.00;-1.00;-1.00;105902;1249;1059087;-71
2023/10/12 01:58:54;;;;;;;9.70;6.40;;;;;;;-128.00;-1.00;-1.00;105769;1250;1047604;-71
2023/10/12 02:01:21;;;;;;;11.70;6.50;;;;;;;-128.00;-1.00;-1.00;105923;1249;1004140;-71
2023/10/12 02:03:54;;;;;;;8.70;5.50;;;;;;;-128.00;-1.00;-1.00;105927;1249;1006129;-71
2023/10/12 02:06:22;;;;;;;10.70;7.20;;;;;;;-128.00;-1.00;-1.00;105903;1250;1056942;-71
2023/10/12 02:08:52;;;;;;;12.10;6.60;;;;;;;-128.00;-1.00;-1.00;105674;1250;1059450;-72
2023/10/12 02:13:47;;;;;;;8.60;6.80;;;;;;;-128.00;-1.00;-1.00;105871;1250;1005497;-72
2023/10/12 02:16:24;;;;;;;12.20;6.70;;;;;;;-128.00;-1.00;-1.00;105813;1249;1005267;-72
2023/10/12 02:18:55;;;;;;;10.40;7.10;;;;;;;-128.00;-1.00;-1.00;105907;1249;1054651;-71
2023/10/12 02:21:22;;;;;;;10.70;7.20;;;;;;;-128.00;-1.00;-1.00;105865;1249;1058536;-71
2023/10/12 02:26:29;;;;;;;13.30;7.60;;;;;;;-128.00;-1.00;-1.00;105950;1249;1046906;-71
2023/10/12 02:29:18;;;;;;;13.20;7.20;;;;;;;-128.00;-1.00;-1.00;105929;1249;1062536;-71
2023/10/12 02:31:55;;;;;;;10.80;8.00;;;;;;;-128.00;-1.00;-1.00;105917;1249;1056289;-71
2023/10/12 02:34:28;;;;;;;11.00;7.30;;;;;;;-128.00;-1.00;-1.00;105985;1249;1058812;-72
2023/10/12 02:39:41;;;;;;;10.20;7.20;;;;;;;-128.00;-1.00;-1.00;105899;1249;1046316;-71
2023/10/12 02:44:42;;;;;;;13.50;7.00;;;;;;;-128.00;-1.00;-1.00;105986;1249;1005067;-72
2023/10/12 02:47:12;;;;;;;11.00;8.40;;;;;;;-128.00;-1.00;-1.00;105915;1249;1059578;-71
2023/10/12 02:49:40;;;;;;;;;;;;;;;-128.00;-1.00;-1.00;105913;1249;1045933;-69
2023/10/12 02:52:08;;;;;;;13.00;9.20;;;;;;;-128.00;-1.00;-1.00;105928;1249;1004823;-70
2023/10/12 02:54:50;;;;;;;13.40;8.20;;;;;;;-128.00;-1.00;-1.00;105898;1249;1004759;-70
2023/10/12 02:57:24;;;;;;;15.10;9.80;;;;;;;-128.00;-1.00;-1.00;105941;1249;1056129;-70
2023/10/12 03:00:13;;;;;;;13.00;9.80;;;;;;;-128.00;-1.00;-1.00;105885;1249;1058126;-71
2023/10/12 03:02:42;;;;;;;11.60;9.10;;;;;;;-128.00;-1.00;-1.00;105862;1249;1047360;-71
2023/10/12 03:05:17;;;;;;;14.00;10.00;;;;;;;-128.00;-1.00;-1.00;105929;1249;1047258;-70
2023/10/12 03:07:44;;;;;;;11.50;9.00;;;;;;;-128.00;-1.00;-1.00;105752;1249;1062635;-70
2023/10/12 03:10:26;;;;;;;12.70;8.80;;;;;;;-128.00;-1.00;-1.00;105930;1250;1004259;-70
2023/10/12 03:12:54;;;;;;;11.30;8.60;;;;;;;-128.00;-1.00;-1.00;105950;1249;1059958;-70
2023/10/12 03:15:40;;;;;;;13.40;9.10;;;;;;;-128.00;-1.00;-1.00;105888;1249;1003859;-70
2023/10/12 03:18:11;;;;;;;11.90;8.90;;;;;;;-128.00;-1.00;-1.00;105884;1249;1048822;-70
2023/10/12 03:20:38;;;;;;;13.20;10.00;;;;;;;-128.00;-1.00;-1.00;105900;1250;1062545;-70
2023/10/12 03:23:19;;;;;;;14.70;10.80;;;;;;;-128.00;-1.00;-1.00;105965;1249;1004514;-70
2023/10/12 03:25:46;;;;;;;13.30;9.50;;;;;;;-128.00;-1.00;-1.00;105885;1250;1060333;-71
2023/10/12 03:28:28;;;;;;;13.80;9.40;;;;;;;-128.00;-1.00;-1.00;105942;1249;1004110;-70
2023/10/12 03:33:55;;;;;;;14.50;10.00;;;;;;;-128.00;-1.00;-1.00;105916;1249;1062640;-71
2023/10/12 03:36:25;;;;;;;13.90;11.00;;;;;;;-128.00;-1.00;-1.00;105935;1249;1055732;-71
2023/10/12 03:39:43;;;;;;;;;;;;;;;-128.00;-1.00;-1.00;105914;1249;1060511;-71
2023/10/12 03:44:48;;;;;;;13.30;11.90;;;;;;;-128.00;-1.00;-1.00;105687;1249;1047868;-71
2023/10/12 03:47:46;;;;;;;20.20;14.30;;;;;;;-128.00;-1.00;-1.00;105972;1249;1061997;-70
2023/10/12 03:50:07;;;;;;;16.00;12.30;;;;;;;-128.00;-1.00;-1.00;105881;1249;1056852;-70
2023/10/12 03:52:42;;;;;;;15.70;11.50;;;;;;;-128.00;-1.00;-1.00;105759;1249;1059241;-70
2023/10/12 04:02:45;;;;;;;13.20;11.80;;;;;;;-128.00;-1.00;-1.00;105872;1250;1055552;-70
2023/10/12 04:08:17;;;;;;;17.50;11.60;;;;;;;-128.00;-1.00;-1.00;105944;1249;1046136;-70
2023/10/12 04:19:03;;;;;;;16.30;13.10;;;;;;;-128.00;-1.00;-1.00;105866;1249;1059539;-71
2023/10/12 04:21:40;;;;;;;17.20;14.60;;;;;;;-128.00;-1.00;-1.00;105945;1249;1046487;-71
2023/10/12 04:27:00;;;;;;;37.70;27.50;;;;;;;-128.00;-1.00;-1.00;105675;1250;1062254;-70
2023/10/12 04:29:30;;;;;;;26.20;20.60;;;;;;;-128.00;-1.00;-1.00;105974;1249;1056106;-70
2023/10/12 04:32:09;;;;;;;;;;;;;;;-128.00;-1.00;-1.00;105918;1249;1059545;-71
2023/10/12 04:34:47;;;;;;;28.60;22.90;;;;;;;-128.00;-1.00;-1.00;105873;1249;1046425;-71
2023/10/12 04:37:18;;;;;;;24.40;18.90;;;;;;;-128.00;-1.00;-1.00;105911;1249;1046058;-70
2023/10/12 04:39:49;;;;;;;27.00;19.60;;;;;;;-128.00;-1.00;-1.00;105938;1249;1061863;-70
2023/10/12 04:42:23;;;;;;;22.50;19.90;;;;;;;-128.00;-1.00;-1.00;105935;1250;1054980;-70
2023/10/12 04:45:03;;;;;;;24.70;20.40;;;;;;;-128.00;-1.00;-1.00;105955;1249;1059703;-70
2023/10/12 04:47:35;;;;;;;20.50;16.20;;;;;;;-128.00;-1.00;-1.00;105860;1249;1046695;-70
2023/10/12 04:50:05;;;;;;;23.40;17.10;;;;;;;-128.00;-1.00;-1.00;105934;1249;1046689;-70
2023/10/12 04:52:36;;;;;;;23.70;16.50;;;;;;;-128.00;-1.00;-1.00;105905;1250;1062746;-70
2023/10/12 04:55:07;;;;;;;19.90;16.80;;;;;;;-128.00;-1.00;-1.00;105937;1249;1055526;-70
2023/10/12 04:57:34;;;;;;;19.40;17.20;;;;;;;-128.00;-1.00;-1.00;105896;1249;1059410;-71
2023/10/12 05:00:12;;;;;;;19.60;17.70;;;;;;;-128.00;-1.00;-1.00;105740;1249;1003486;-71
2023/10/12 05:07:53;;;;;;;17.60;15.30;;;;;;;-128.00;-1.00;-1.00;105914;1249;1056148;-70
2023/10/12 05:10:31;;;;;;;16.90;14.60;;;;;;;-128.00;-1.00;-1.00;105892;1249;1059736;-70
2023/10/12 05:13:05;;;;;;;17.00;13.90;;;;;;;-128.00;-1.00;-1.00;105898;1249;1047435;-70
2023/10/12 05:18:18;;;;;;;17.80;12.90;;;;;;;-128.00;-1.00;-1.00;105921;1249;1062593;-69
2023/10/12 05:20:44;;;;;;;17.30;12.70;;;;;;;-128.00;-1.00;-1.00;105947;1250;1005389;-70
2023/10/12 05:23:11;;;;;;;15.00;12.40;;;;;;;-128.00;-1.00;-1.00;105890;1249;1004480;-70
2023/10/12 05:25:53;;;;;;;14.90;12.30;;;;;;;-128.00;-1.00;-1.00;105927;1249;1003805;-71
2023/10/12 05:28:28;;;;;;;14.30;12.00;;;;;;;-128.00;-1.00;-1.00;105936;1249;1047642;-70
2023/10/12 05:30:55;;;;;;;13.10;11.60;;;;;;;-128.00;-1.00;-1.00;105952;1249;1062231;-70
2023/10/12 05:34:00;;;;;;;17.60;12.40;;;;;;;-128.00;-1.00;-1.00;105887;1251;1004008;-70
2023/10/12 05:36:11;;;;;;;13.00;11.30;;;;;;;-128.00;-1.00;-1.00;105907;1249;1058631;-70
2023/10/12 05:38:48;;;;;;;16.60;10.80;;;;;;;-128.00;-1.00;-1.00;105923;1250;1045408;-70
2023/10/12 05:41:33;;;;;;;12.30;9.80;;;;;;;-128.00;-1.00;-1.00;105917;1249;1046768;-70
2023/10/12 05:44:02;;;;;;;13.70;10.70;;;;;;;-128.00;-1.00;-1.00;105983;1249;1062139;-70
2023/10/12 05:46:34;;;;;;;12.40;10.10;;;;;;;-128.00;-1.00;-1.00;105938;1249;1056789;-70
2023/10/12 05:49:11;;;;;;;12.00;10.40;;;;;;;-128.00;-1.00;-1.00;105899;1249;1059325;-71
2023/10/12 05:51:38;;;;;;;12.70;9.80;;;;;;;-128.00;-1.00;-1.00;105908;1250;1047918;-70
2023/10/12 05:54:07;;;;;;;15.90;9.60;;;;;;;-128.00;-1.00;-1.00;105961;1250;1004615;-70
2023/10/12 05:56:36;;;;;;;16.70;9.90;;;;;;;-128.00;-1.00;-1.00;105890;1249;1061977;-70
2023/10/12 05:59:09;;;;;;;11.20;9.00;;;;;;;-128.00;-1.00;-1.00;105957;1249;1055768;-70
2023/10/12 06:01:37;;;;;;;13.70;10.80;;;;;;;-128.00;-1.00;-1.00;105926;1249;1058596;-71
2023/10/12 06:04:08;;;;;;;12.50;10.30;;;;;;;-128.00;-1.00;-1.00;105907;1249;1004546;-71
2023/10/12 06:06:40;;;;;;;14.80;9.80;;;;;;;-128.00;-1.00;-1.00;105907;1249;1048616;-70
2023/10/12 06:09:20;;;;;;;15.10;9.70;;;;;;;-128.00;-1.00;-1.00;105953;1249;1063366;-70
2023/10/12 06:11:48;;;;;;;14.00;9.50;;;;;;;-128.00;-1.00;-1.00;105949;1249;1055158;-69
2023/10/12 06:14:15;;;;;;;12.00;9.90;;;;;;;-128.00;-1.00;-1.00;105891;1249;1004151;-69
2023/10/12 06:16:42;;;;;;;16.20;10.30;;;;;;;-128.00;-1.00;-1.00;105869;1249;1004693;-77
2023/10/12 06:19:22;;;;;;;12.50;9.20;;;;;;;-128.00;-1.00;-1.00;105885;1249;1004107;-70
2023/10/12 06:21:51;;;;;;;13.90;9.80;;;;;;;-128.00;-1.00;-1.00;105932;1250;1062188;-70
2023/10/12 06:24:21;;;;;;;13.30;10.20;;;;;;;-128.00;-1.00;-1.00;105900;1249;1056250;-71
2023/10/12 06:26:48;;;;;;;13.50;9.10;;;;;;;-128.00;-1.00;-1.00;105873;1249;1058343;-69
2023/10/12 06:29:25;;;;;;;16.00;10.70;;;;;;;-128.00;-1.00;-1.00;105926;1249;1003874;-69
2023/10/12 06:31:53;;;;;;;14.00;10.30;;;;;;;-128.00;-1.00;-1.00;105930;1249;1047967;-71
2023/10/12 06:34:23;;;;;;;15.30;9.70;;;;;;;-128.00;-1.00;-1.00;105873;1253;1062261;-69
2023/10/12 06:36:57;;;;;;;15.90;9.90;;;;;;;-128.00;-1.00;-1.00;105884;1250;1054951;-69
2023/10/12 06:46:48;;;;;;;;;;;;;;;-128.00;-1.00;-1.00;105917;1249;1061282;-68
2023/10/12 06:49:18;;;;;;;11.90;7.30;;;;;;;-128.00;-1.00;-1.00;105712;1249;1004458;-70
2023/10/12 06:51:53;;;;;;;18.50;8.60;;;;;;;-128.00;-1.00;-1.00;105859;1249;1058485;-70
2023/10/12 06:54:31;;;;;;;10.50;6.80;;;;;;;-128.00;-1.00;-1.00;105902;1249;1045679;-70
2023/10/12 06:57:29;;;;;;;14.40;7.10;;;;;;;-128.00;-1.00;-1.00;105894;1249;1047104;-70
2023/10/12 07:02:29;;;;;;;6.00;5.40;;;;;;;-128.00;-1.00;-1.00;105541;1249;1055294;-70
2023/10/12 07:04:56;;;;;;;12.70;5.40;;;;;;;-128.00;-1.00;-1.00;105899;1250;1059396;-70
2023/10/12 07:07:29;;;;;;;10.60;5.60;;;;;;;-128.00;-1.00;-1.00;105915;1249;1005080;-70
2023/10/12 07:10:12;;;;;;;11.40;6.00;;;;;;;-128.00;-1.00;-1.00;105870;1250;1046932;-70
2023/10/12 07:12:45;;;;;;;8.80;5.10;;;;;;;-128.00;-1.00;-1.00;105906;1249;1061959;-70
2023/10/12 07:15:14;;;;;;;11.70;6.40;;;;;;;-128.00;-1.00;-1.00;105878;1250;1055968;-70
2023/10/12 07:17:50;;;;;;;12.00;5.50;;;;;;;-128.00;-1.00;-1.00;105862;1250;1060443;-69
2023/10/12 07:23:33;;;;;;;8.80;5.30;;;;;;;-128.00;-1.00;-1.00;105867;1249;1047669;-69
2023/10/12 07:25:49;;;;;;;9.70;5.90;;;;;;;-128.00;-1.00;-1.00;105857;1250;1061770;-69
2023/10/12 07:28:19;;;;;;;7.20;5.30;;;;;;;-128.00;-1.00;-1.00;105933;1249;1057451;-70
2023/10/12 07:31:23;;;;;;;11.10;5.40;;;;;;;-128.00;-1.00;-1.00;105844;1253;1059625;-69
2023/10/12 07:39:19;;;;;;;10.00;5.80;;;;;;;-128.00;-1.00;-1.00;105858;1249;1061762;-69
2023/10/12 07:41:54;;;;;;;10.00;5.50;;;;;;;-128.00;-1.00;-1.00;105923;1249;1055860;-70
2023/10/12 07:44:23;;;;;;;11.00;5.90;;;;;;;-128.00;-1.00;-1.00;105911;1249;1059735;-70
2023/10/12 07:46:50;;;;;;;9.40;5.90;;;;;;;-128.00;-1.00;-1.00;105916;1250;1046377;-70
2023/10/12 07:52:22;;;;;;;10.90;5.70;;;;;;;-128.00;-1.00;-1.00;105914;1250;1063460;-70
2023/10/12 07:57:20;;;;;;;9.20;5.20;;;;;;;-128.00;-1.00;-1.00;105927;1250;1059848;-75
2023/10/12 07:59:59;;;;;;;7.20;5.50;;;;;;;-128.00;-1.00;-1.00;105747;1249;1003996;-70
2023/10/12 08:05:24;;;;;;;8.20;5.40;;;;;;;-128.00;-1.00;-1.00;105962;1250;1062551;-76
2023/10/12 08:23:49;;;;;;;10.20;4.80;;;;;;;-128.00;-1.00;-1.00;105787;1250;1059296;-72
2023/10/12 08:26:35;;;;;;;9.60;5.50;;;;;;;-128.00;-1.00;-1.00;105789;1250;1045567;-68
2023/10/12 08:29:09;;;;;;;8.50;5.00;;;;;;;-128.00;-1.00;-1.00;105840;1250;1048142;-69
2023/10/12 08:31:43;;;;;;;7.60;4.90;;;;;;;-128.00;-1.00;-1.00;105841;1250;1060921;-71
2023/10/12 08:34:32;;;;;;;7.70;4.90;;;;;;;-128.00;-1.00;-1.00;105818;1250;1055849;-68
2023/10/12 08:39:39;;;;;;;11.40;5.60;;;;;;;-128.00;-1.00;-1.00;105629;1250;1045689;-71
2023/10/12 08:44:58;;;;;;;10.70;5.60;;;;;;;-128.00;-1.00;-1.00;105781;1250;1061810;-68
2023/10/12 08:52:28;;;;;;;8.40;4.90;;;;;;;-128.00;-1.00;-1.00;105853;1250;1004140;-69
2023/10/12 08:55:04;;;;;;;8.50;5.20;;;;;;;-128.00;-1.00;-1.00;105749;1250;1046850;-68
2023/10/12 08:58:02;;;;;;;7.90;5.10;;;;;;;-128.00;-1.00;-1.00;105668;1250;1061917;-68
2023/10/12 09:03:24;;;;;;;7.40;4.70;;;;;;;-128.00;-1.00;-1.00;105824;1250;1058947;-69
2023/10/12 09:05:51;;;;;;;7.70;4.80;;;;;;;-128.00;-1.00;-1.00;105825;1250;1046075;-68
2023/10/12 09:10:54;;;;;;;9.70;4.70;;;;;;;-128.00;-1.00;-1.00;105803;1250;1003624;-68
2023/10/12 09:13:22;;;;;;;8.10;4.80;;;;;;;-128.00;-1.00;-1.00;105808;1250;1056234;-67
2023/10/12 09:15:54;;;;;;;9.40;4.80;;;;;;;-128.00;-1.00;-1.00;105811;1250;1004296;-67
2023/10/12 09:18:35;;;;;;;9.90;5.80;;;;;;;-128.00;-1.00;-1.00;105838;1250;1045940;-68
2023/10/12 09:36:26;;;;;;;8.90;5.30;;;;;;;-128.00;-1.00;-1.00;105840;1250;1062330;-68
2023/10/12 09:38:55;;;;;;;8.40;4.90;;;;;;;-128.00;-1.00;-1.00;105788;1250;1004562;-69
2023/10/12 09:41:28;;;;;;;7.50;4.70;;;;;;;-128.00;-1.00;-1.00;105856;1250;1060989;-69
2023/10/12 09:43:56;;;;;;;10.50;6.00;;;;;;;-128.00;-1.00;-1.00;105820;1250;1044727;-69
2023/10/12 09:46:26;;;;;;;6.90;4.90;;;;;;;-128.00;-1.00;-1.00;105844;1251;1003932;-70
2023/10/12 09:49:02;;;;;;;10.60;5.20;;;;;;;-128.00;-1.00;-1.00;105838;1250;1062555;-70
2023/10/12 09:51:35;;;;;;;7.60;5.10;;;;;;;-128.00;-1.00;-1.00;105855;1250;1056864;-70
2023/10/12 09:54:15;;;;;;;9.00;5.20;;;;;;;-128.00;-1.00;-1.00;105814;1250;1058393;-70
2023/10/12 09:56:57;;;;;;;8.90;6.00;;;;;;;-128.00;-1.00;-1.00;105795;1250;1045368;-70
2023/10/12 09:59:29;;;;;;;10.80;5.30;;;;;;;-128.00;-1.00;-1.00;105737;1250;1046330;-70
2023/10/12 10:02:27;;;;;;;8.30;5.00;;;;;;;-128.00;-1.00;-1.00;105848;1250;1061892;-70
2023/10/12 10:05:27;;;;;;;7.40;5.10;;;;;;;-128.00;-1.00;-1.00;105838;1250;1055581;-70
2023/10/12 10:08:02;;;;;;;8.30;5.10;;;;;;;-128.00;-1.00;-1.00;105850;1250;1059131;-69
2023/10/12 10:10:39;;;;;;;8.40;4.60;;;;;;;-128.00;-1.00;-1.00;105806;1250;1045020;-70
2023/10/12 10:13:10;;;;;;;8.70;5.20;;;;;;;-128.00;-1.00;-1.00;105822;1250;1046378;-70
2023/10/12 10:15:56;;;;;;;8.40;4.90;;;;;;;-128.00;-1.00;-1.00;105818;1250;1062055;-69
2023/10/12 10:18:25;;;;;;;9.10;4.70;;;;;;;-128.00;-1.00;-1.00;105834;1250;1056544;-69
2023/10/12 10:20:58;;;;;;;7.20;4.90;;;;;;;-128.00;-1.00;-1.00;105812;1250;1059563;-69
2023/10/12 10:23:24;;;;;;;6.70;4.50;;;;;;;-128.00;-1.00;-1.00;105838;1250;1044752;-69
2023/10/12 10:26:30;;;;;;;7.10;5.00;;;;;;;-128.00;-1.00;-1.00;105855;1250;1004108;-69
2023/10/12 10:29:17;;;;;;;6.90;4.10;;;;;;;-128.00;-1.00;-1.00;105824;1256;1063081;-69
2023/10/12 10:31:50;;;;;;;9.70;4.90;;;;;;;-128.00;-1.00;-1.00;105835;1251;1056144;-69
2023/10/12 10:34:23;;;;;;;8.60;4.90;;;;;;;-128.00;-1.00;-1.00;105843;1250;1059655;-70
2023/10/12 10:36:53;;;;;;;10.20;4.80;;;;;;;-128.00;-1.00;-1.00;105841;1250;1044698;-70
2023/10/12 10:41:46;;;;;;;11.50;4.50;;;;;;;-128.00;-1.00;-1.00;105843;1250;1004347;-69
2023/10/12 10:44:21;;;;;;;10.20;4.40;;;;;;;-128.00;-1.00;-1.00;105773;1255;1003879;-69
2023/10/12 10:46:54;;;;;;;9.10;4.40;;;;;;;-128.00;-1.00;-1.00;105765;1250;1058376;-69
2023/10/12 10:49:21;;;;;;;11.10;4.90;;;;;;;-128.00;-1.00;-1.00;105888;1252;1044577;-69
2023/10/12 10:54:39;;;;;;;7.40;4.50;;;;;;;-128.00;-1.00;-1.00;105862;1250;1061601;-70
2023/10/12 10:57:17;;;;;;;12.20;5.20;;;;;;;-128.00;-1.00;-1.00;105795;1250;1054928;-69
2023/10/12 10:59:44;;;;;;;7.30;4.60;;;;;;;-128.00;-1.00;-1.00;105840;1251;1058762;-70
2023/10/12 11:02:18;;;;;;;12.10;5.50;;;;;;;-128.00;-1.00;-1.00;105806;1251;1004108;-70
2023/10/12 11:04:46;;;;;;;10.90;5.70;;;;;;;-128.00;-1.00;-1.00;105750;1252;1048264;-69
2023/10/12 11:07:15;;;;;;;10.30;5.30;;;;;;;-128.00;-1.00;-1.00;105807;1250;1003831;-70
2023/10/12 11:12:21;;;;;;;8.60;5.40;;;;;;;-128.00;-1.00;-1.00;105854;1250;1058900;-69
2023/10/12 11:14:58;;;;;;;8.50;5.00;;;;;;;-128.00;-1.00;-1.00;105821;1250;1004777;-70
2023/10/12 11:17:30;;;;;;;7.80;5.60;;;;;;;-128.00;-1.00;-1.00;105866;1250;1046097;-70
2023/10/12 11:19:58;;;;;;;8.30;5.40;;;;;;;-128.00;-1.00;-1.00;105823;1250;1062037;-70
2023/10/12 11:22:25;;;;;;;9.50;5.50;;;;;;;-128.00;-1.00;-1.00;105823;1250;1004425;-70
2023/10/12 11:24:53;;;;;;;11.40;5.10;;;;;;;-128.00;-1.00;-1.00;105840;1254;1004201;-70
2023/10/12 11:27:31;;;;;;;8.90;5.20;;;;;;;-128.00;-1.00;-1.00;105561;1250;1045833;-71
2023/10/12 11:30:00;;;;;;;8.00;5.60;;;;;;;-128.00;-1.00;-1.00;105829;1251;1047199;-71
2023/10/12 11:32:28;;;;;;;7.90;4.90;;;;;;;-128.00;-1.00;-1.00;105834;1251;1062542;-70
2023/10/12 11:35:00;;;;;;;7.50;5.50;;;;;;;-128.00;-1.00;-1.00;105812;1250;1004403;-69
2023/10/12 11:37:30;;;;;;;9.20;5.40;;;;;;;-128.00;-1.00;-1.00;105827;1251;1059908;-70
2023/10/12 11:39:57;;;;;;;10.40;5.00;;;;;;;-128.00;-1.00;-1.00;105814;1253;1045358;-70
2023/10/12 11:42:24;;;;;;;7.90;4.40;;;;;;;-128.00;-1.00;-1.00;105830;1250;1003876;-70
2023/10/12 11:44:51;;;;;;;8.90;5.20;;;;;;;-128.00;-1.00;-1.00;105855;1250;1004360;-70
2023/10/12 11:47:23;;;;;;;9.10;5.40;;;;;;;-128.00;-1.00;-1.00;105831;1251;1003826;-69
2023/10/12 11:49:55;;;;;;;11.10;8.60;;;;;;;-128.00;-1.00;-1.00;105789;1251;1059920;-69
2023/10/12 11:52:33;;;;;;;8.70;5.90;;;;;;;-128.00;-1.00;-1.00;105799;1250;1045239;-70
2023/10/12 11:55:06;;;;;;;7.70;6.10;;;;;;;-128.00;-1.00;-1.00;105801;1251;1046749;-70
2023/10/12 11:57:38;;;;;;;10.20;5.00;;;;;;;-128.00;-1.00;-1.00;105823;1250;1062476;-70
2023/10/12 12:02:57;;;;;;;8.70;4.60;;;;;;;-128.00;-1.00;-1.00;105831;1251;1058283;-70
2023/10/12 12:05:25;;;;;;;8.80;5.60;;;;;;;-128.00;-1.00;-1.00;105807;1250;1044592;-70
2023/10/12 12:07:52;;;;;;;9.10;5.10;;;;;;;-128.00;-1.00;-1.00;105871;1254;1003344;-70
2023/10/12 12:13:08;;;;;;;9.90;6.00;;;;;;;-128.00;-1.00;-1.00;105814;1250;1056132;-70
2023/10/12 12:15:35;;;;;;;9.10;5.50;;;;;;;-128.00;-1.00;-1.00;105780;1251;1059699;-70
2023/10/12 12:18:09;;;;;;;9.30;5.60;;;;;;;-128.00;-1.00;-1.00;105792;1251;1004386;-70
2023/10/12 12:20:39;;;;;;;7.90;5.80;;;;;;;-128.00;-1.00;-1.00;105714;1251;1046945;-70
2023/10/12 12:23:09;;;;;;;;;;;;;;;-128.00;-1.00;-1.00;105771;1251;1062398;-69
2023/10/12 12:25:39;;;;;;;8.10;5.10;;;;;;;-128.00;-1.00;-1.00;105449;1251;1055147;-70
2023/10/12 12:28:15;;;;;;;13.30;6.40;;;;;;;-128.00;-1.00;-1.00;105737;1251;1058212;-70
2023/10/12 12:30:46;;;;;;;12.10;5.80;;;;;;;-128.00;-1.00;-1.00;105709;1251;1044608;-70
2023/10/12 12:33:16;;;;;;;7.80;5.40;;;;;;;-128.00;-1.00;-1.00;105782;1251;1046621;-70
2023/10/12 12:35:46;;;;;;;9.60;5.40;;;;;;;-128.00;-1.00;-1.00;105734;1252;1061677;-71
2023/10/12 12:38:30;;;;;;;10.10;5.10;;;;;;;-128.00;-1.00;-1.00;105783;1251;1056038;-70
2023/10/12 12:40:57;;;;;;;8.70;5.80;;;;;;;-128.00;-1.00;-1.00;105763;1251;1060290;-69
2023/10/12 12:43:23;;;;;;;8.80;5.40;;;;;;;-128.00;-1.00;-1.00;105718;1251;1004359;-70
2023/10/12 12:45:52;;;;;;;10.40;6.00;;;;;;;-128.00;-1.00;-1.00;105776;1251;1004698;-70
2023/10/12 12:48:22;;;;;;;6.60;5.40;;;;;;;-128.00;-1.00;-1.00;105776;1255;1062501;-69
2023/10/12 12:50:48;;;;;;;8.10;5.30;;;;;;;-128.00;-1.00;-1.00;105465;1251;1055945;-70
2023/10/12 12:53:18;;;;;;;10.70;5.20;;;;;;;-128.00;-1.00;-1.00;105749;1251;1003668;-70
2023/10/12 12:55:46;;;;;;;6.90;5.10;;;;;;;-128.00;-1.00;-1.00;105756;1251;1044215;-70
2023/10/12 12:58:15;;;;;;;10.20;5.10;;;;;;;-128.00;-1.00;-1.00;105766;1251;1004394;-69
2023/10/12 13:00:42;;;;;;;8.60;6.00;;;;;;;-128.00;-1.00;-1.00;105802;1250;1062669;-69
2023/10/12 13:03:09;;;;;;;10.10;5.40;;;;;;;-128.00;-1.00;-1.00;105871;1250;1005036;-70
2023/10/12 13:05:36;;;;;;;6.60;5.00;;;;;;;-128.00;-1.00;-1.00;105792;1251;1004949;-70
2023/10/12 13:08:07;;;;;;;8.00;5.50;;;;;;;-128.00;-1.00;-1.00;105894;1250;1004737;-70
2023/10/12 13:10:35;;;;;;;7.90;5.20;;;;;;;-128.00;-1.00;-1.00;105821;1250;1046283;-70
2023/10/12 13:13:01;;;;;;;9.90;5.10;;;;;;;-128.00;-1.00;-1.00;105803;1251;1004192;-70
2023/10/12 13:15:28;;;;;;;9.80;5.60;;;;;;;-128.00;-1.00;-1.00;105870;1251;1005471;-70
2023/10/12 13:17:57;;;;;;;10.20;5.50;;;;;;;-128.00;-1.00;-1.00;105750;1251;1003688;-70
2023/10/12 13:20:29;;;;;;;8.20;5.50;;;;;;;-128.00;-1.00;-1.00;105811;1251;1045072;-70
2023/10/12 13:22:56;;;;;;;9.60;5.90;;;;;;;-128.00;-1.00;-1.00;105735;1251;1046683;-70
2023/10/12 13:25:25;;;;;;;7.70;5.20;;;;;;;-128.00;-1.00;-1.00;105792;1251;1004290;-70
2023/10/12 13:27:53;;;;;;;8.60;5.20;;;;;;;-128.00;-1.00;-1.00;105845;1251;1056859;-70
2023/10/12 13:30:20;;;;;;;11.10;5.80;;;;;;;-128.00;-1.00;-1.00;105794;1251;1004814;-70
2023/10/12 13:32:55;;;;;;;45.40;35.70;;;;;;;-128.00;-1.00;-1.00;105825;1250;1004346;-70
2023/10/12 13:38:09;;;;;;;9.40;6.90;;;;;;;-128.00;-1.00;-1.00;105855;1251;1061136;-71
2023/10/12 13:40:37;;;;;;;12.00;9.70;;;;;;;-128.00;-1.00;-1.00;105838;1250;1056785;-70
2023/10/12 13:45:52;;;;;;;10.50;7.50;;;;;;;-128.00;-1.00;-1.00;105770;1251;1044287;-70
2023/10/12 13:48:21;;;;;;;15.50;9.90;;;;;;;-128.00;-1.00;-1.00;105848;1250;1046646;-69
2023/10/12 13:51:04;;;;;;;10.30;8.10;;;;;;;-128.00;-1.00;-1.00;105832;1251;1062319;-69
2023/10/12 13:53:38;;;;;;;11.00;6.50;;;;;;;-128.00;-1.00;-1.00;105845;1250;1055106;-69
2023/10/12 13:56:09;;;;;;;10.90;7.10;;;;;;;-128.00;-1.00;-1.00;105785;1251;1060176;-69
2023/10/12 13:58:36;;;;;;;13.80;9.50;;;;;;;-128.00;-1.00;-1.00;105813;1250;1044284;-70
2023/10/12 14:01:03;;;;;;;10.00;6.60;;;;;;;-128.00;-1.00;-1.00;105779;1251;1004317;-69
2023/10/12 14:03:38;;;;;;;10.50;6.50;;;;;;;-128.00;-1.00;-1.00;105855;1250;1004449;-70
2023/10/12 14:06:06;;;;;;;11.00;6.50;;;;;;;-128.00;-1.00;-1.00;105861;1250;1056819;-70
2023/10/12 14:08:35;;;;;;;12.20;6.80;;;;;;;-128.00;-1.00;-1.00;105818;1250;1004513;-70